Time;durP1;ratioP1;P1;durP2;ratioP2;P2;SDS_P1;SDS_P2;PMS_P1;PMS_P2;Temp;Humidity;BMP_temperature;BMP_pressure;BME280_temperature;BME280_humidity;BME280_pressure;Samples;Min_cycle;Max_cycle;Signal;HPM_P1;HPM_P2
2023/06/17 00:00:30;;;;;;;0.37;0.37;;;15.90;99.90;;;;;;5116640;28;20085;-69
2023/06/17 00:02:56;;;;;;;0.40;0.40;;;15.80;99.90;;;;;;5115667;28;20088;-69
2023/06/17 00:05:24;;;;;;;0.40;0.40;;;15.80;99.90;;;;;;5116499;28;20136;-70
2023/06/17 00:07:50;;;;;;;0.30;0.30;;;15.80;99.90;;;;;;5098916;28;20051;-68
2023/06/17 00:10:15;;;;;;;0.40;0.40;;;15.70;99.90;;;;;;5116579;28;20413;-69
2023/06/17 00:12:41;;;;;;;0.30;0.30;;;15.70;99.90;;;;;;5116469;28;20118;-70
2023/06/17 00:15:07;;;;;;;0.30;0.30;;;15.60;99.90;;;;;;5116692;28;20104;-69
2023/06/17 00:17:33;;;;;;;0.30;0.30;;;15.60;99.90;;;;;;5116425;28;20035;-69
2023/06/17 00:20:08;;;;;;;0.30;0.30;;;15.50;99.90;;;;;;5116290;28;20075;-69
2023/06/17 00:22:39;;;;;;;0.30;0.30;;;15.50;99.90;;;;;;5116320;28;20035;-69
2023/06/17 00:25:05;;;;;;;0.30;0.30;;;15.50;99.90;;;;;;5116637;27;20444;-68
2023/06/17 00:27:31;;;;;;;0.30;0.30;;;15.50;99.90;;;;;;5116183;28;20118;-69
2023/06/17 00:30:00;;;;;;;0.40;0.40;;;15.40;99.90;;;;;;5116514;28;20071;-69
2023/06/17 00:32:27;;;;;;;0.30;0.30;;;15.40;99.90;;;;;;5116062;28;20074;-68
2023/06/17 00:34:53;;;;;;;0.30;0.30;;;15.30;99.90;;;;;;5115977;28;20126;-69
2023/06/17 00:37:19;;;;;;;0.40;0.40;;;15.30;99.90;;;;;;5116026;28;20036;-69
2023/06/17 00:39:45;;;;;;;0.40;0.40;;;15.30;99.90;;;;;;5115932;28;20042;-69
2023/06/17 00:42:14;;;;;;;0.30;0.30;;;15.30;99.90;;;;;;5116423;28;20036;-68
2023/06/17 00:44:40;;;;;;;0.30;0.30;;;15.20;99.90;;;;;;5115798;28;20050;-70
2023/06/17 00:47:08;;;;;;;0.50;0.50;;;15.20;99.90;;;;;;5115804;28;20049;-69
2023/06/17 00:49:36;;;;;;;0.40;0.40;;;15.20;99.90;;;;;;5115720;28;20046;-69
2023/06/17 00:52:07;;;;;;;0.50;0.50;;;15.20;99.90;;;;;;5116238;27;20031;-68
2023/06/17 00:54:38;;;;;;;0.30;0.30;;;15.10;99.90;;;;;;5116116;28;20050;-69
2023/06/17 00:57:11;;;;;;;0.30;0.30;;;15.10;99.90;;;;;;5115592;28;20459;-69
2023/06/17 00:59:39;;;;;;;1.65;1.05;;;15.10;99.90;;;;;;5115500;28;20050;-68
2023/06/17 01:02:09;;;;;;;0.30;0.30;;;15.00;99.90;;;;;;5115198;28;20065;-68
2023/06/17 01:04:43;;;;;;;0.40;0.40;;;15.00;99.90;;;;;;5115430;28;20079;-69
2023/06/17 01:07:23;;;;;;;0.40;0.40;;;15.00;99.90;;;;;;5115404;27;20046;-69
2023/06/17 01:09:54;;;;;;;0.40;0.40;;;15.00;99.90;;;;;;5115337;28;20031;-69
2023/06/17 01:12:24;;;;;;;0.40;0.40;;;15.00;99.90;;;;;;5115258;28;20040;-69
2023/06/17 01:14:53;;;;;;;0.40;0.40;;;15.10;99.90;;;;;;5115203;28;20039;-68
2023/06/17 01:17:19;;;;;;;0.38;0.38;;;15.00;99.90;;;;;;5115244;28;20086;-69
2023/06/17 01:19:48;;;;;;;0.30;0.30;;;15.10;99.90;;;;;;5115391;28;20071;-70
2023/06/17 01:22:16;;;;;;;0.40;0.40;;;14.90;99.90;;;;;;5115386;28;20058;-69
2023/06/17 01:24:43;;;;;;;0.40;0.40;;;15.20;99.90;;;;;;5114844;28;20039;-69
2023/06/17 01:27:08;;;;;;;0.30;0.30;;;15.30;99.90;;;;;;5114787;28;20413;-69
2023/06/17 01:29:36;;;;;;;1.27;1.17;;;15.30;99.90;;;;;;5114952;28;20040;-69
2023/06/17 01:32:05;;;;;;;0.60;0.60;;;15.30;99.90;;;;;;5114946;28;20113;-69
2023/06/17 01:34:52;;;;;;;0.40;0.40;;;15.30;99.90;;;;;;5114929;28;20407;-69
2023/06/17 01:37:27;;;;;;;0.40;0.40;;;15.40;99.90;;;;;;5113951;28;20051;-69
2023/06/17 01:39:57;;;;;;;0.40;0.40;;;15.40;99.90;;;;;;5115220;28;20075;-69
2023/06/17 01:42:31;;;;;;;0.47;0.47;;;15.50;99.90;;;;;;5114704;28;20043;-69
2023/06/17 01:44:59;;;;;;;0.40;0.40;;;15.60;99.90;;;;;;5114824;28;20120;-70
2023/06/17 01:47:26;;;;;;;0.30;0.30;;;15.60;99.90;;;;;;5114808;28;20041;-69
2023/06/17 01:49:51;;;;;;;0.40;0.40;;;15.70;99.90;;;;;;5114635;28;20039;-69
2023/06/17 01:52:17;;;;;;;0.50;0.50;;;15.70;99.90;;;;;;5114584;28;20032;-69
2023/06/17 01:54:43;;;;;;;0.40;0.40;;;15.70;99.90;;;;;;5114581;28;20035;-69
2023/06/17 01:57:08;;;;;;;0.40;0.40;;;15.70;99.90;;;;;;5114376;28;20378;-70
2023/06/17 01:59:34;;;;;;;0.40;0.40;;;15.70;99.90;;;;;;5114467;28;20039;-69
2023/06/17 02:01:59;;;;;;;0.30;0.30;;;15.70;99.90;;;;;;5114604;28;20123;-69
2023/06/17 02:04:25;;;;;;;0.40;0.40;;;15.60;99.90;;;;;;5114013;28;20059;-69
2023/06/17 02:06:51;;;;;;;0.30;0.30;;;15.70;99.90;;;;;;5114364;28;20036;-69
2023/06/17 02:09:17;;;;;;;0.40;0.40;;;15.70;99.90;;;;;;5114894;28;20035;-68
2023/06/17 02:11:43;;;;;;;0.30;0.30;;;15.70;99.90;;;;;;5113342;28;20039;-70
2023/06/17 02:14:09;;;;;;;0.40;0.40;;;15.80;99.90;;;;;;5114373;28;20428;-70
2023/06/17 02:16:39;;;;;;;0.50;0.50;;;15.70;99.90;;;;;;5114258;28;20138;-69
2023/06/17 02:19:04;;;;;;;0.30;0.30;;;15.60;99.90;;;;;;5114132;28;20043;-69
2023/06/17 02:21:30;;;;;;;0.40;0.40;;;15.60;99.90;;;;;;5113849;28;20058;-69
2023/06/17 02:23:56;;;;;;;0.40;0.40;;;15.60;99.90;;;;;;5114214;28;20360;-69
2023/06/17 02:26:22;;;;;;;0.40;0.40;;;15.50;99.90;;;;;;5118393;28;20031;-69
2023/06/17 02:28:48;;;;;;;0.40;0.40;;;15.50;99.90;;;;;;5119684;28;20123;-70
2023/06/17 02:31:14;;;;;;;0.40;0.40;;;15.40;99.90;;;;;;5120988;28;20075;-69
2023/06/17 02:33:39;;;;;;;0.40;0.40;;;15.60;99.90;;;;;;5120893;28;20039;-69
2023/06/17 02:36:05;;;;;;;0.70;0.70;;;15.50;99.90;;;;;;5120904;28;20031;-70
2023/06/17 02:38:32;;;;;;;0.40;0.40;;;15.40;99.90;;;;;;5121314;28;20092;-70
2023/06/17 02:40:58;;;;;;;0.40;0.40;;;15.40;99.90;;;;;;5120776;27;20036;-69
2023/06/17 02:43:24;;;;;;;0.40;0.40;;;15.30;99.90;;;;;;5120871;27;20043;-70
2023/06/17 02:45:49;;;;;;;0.50;0.50;;;15.30;99.90;;;;;;5120841;28;20100;-70
2023/06/17 02:48:15;;;;;;;0.40;0.40;;;15.40;99.90;;;;;;5120868;28;20036;-69
2023/06/17 02:50:41;;;;;;;0.40;0.40;;;15.40;99.90;;;;;;5120762;28;20074;-69
2023/06/17 02:53:07;;;;;;;1.17;1.17;;;16.10;99.90;;;;;;5121009;27;20047;-70
2023/06/17 02:55:33;;;;;;;0.40;0.40;;;15.40;99.90;;;;;;5121138;27;20062;-69
2023/06/17 02:57:58;;;;;;;0.40;0.40;;;15.40;99.90;;;;;;5120651;28;20048;-69
2023/06/17 03:00:24;;;;;;;0.40;0.40;;;15.40;99.90;;;;;;5120442;28;20039;-69
2023/06/17 03:02:50;;;;;;;0.40;0.40;;;15.40;99.90;;;;;;5120818;27;20405;-69
2023/06/17 03:05:16;;;;;;;0.50;0.50;;;15.40;99.90;;;;;;5120684;27;20047;-69
2023/06/17 03:07:43;;;;;;;0.50;0.50;;;15.40;99.90;;;;;;5120633;27;20051;-69
2023/06/17 03:10:10;;;;;;;0.50;0.50;;;15.30;99.90;;;;;;5120543;27;20048;-69
2023/06/17 03:12:35;;;;;;;0.60;0.60;;;15.40;99.90;;;;;;5120918;28;20043;-69
2023/06/17 03:15:01;;;;;;;0.50;0.50;;;15.40;99.90;;;;;;5120693;28;20269;-70
2023/06/17 03:17:27;;;;;;;4.90;3.03;;;15.30;99.90;;;;;;5120551;27;20372;-69
2023/06/17 03:19:53;;;;;;;0.73;0.60;;;15.20;99.90;;;;;;5120268;28;20071;-69
2023/06/17 03:22:19;;;;;;;0.70;0.70;;;15.20;99.90;;;;;;5118999;28;20067;-69
2023/06/17 03:24:45;;;;;;;0.50;0.50;;;15.30;99.90;;;;;;5120421;28;20039;-69
2023/06/17 03:27:12;;;;;;;0.50;0.50;;;15.20;99.90;;;;;;5120440;27;20122;-70
2023/06/17 03:29:37;;;;;;;1.45;1.35;;;15.20;99.90;;;;;;5120453;27;20443;-69
2023/06/17 03:32:03;;;;;;;0.50;0.50;;;15.30;99.90;;;;;;5120546;28;20075;-69
2023/06/17 03:34:31;;;;;;;0.70;0.70;;;15.20;99.90;;;;;;5120362;28;20097;-70
2023/06/17 03:36:57;;;;;;;0.50;0.50;;;15.20;99.90;;;;;;5119690;27;20035;-69
2023/06/17 03:39:23;;;;;;;0.50;0.50;;;15.10;99.90;;;;;;5116590;28;20044;-69
2023/06/17 03:41:48;;;;;;;0.50;0.50;;;15.10;99.90;;;;;;5117372;28;20581;-70
2023/06/17 03:44:14;;;;;;;0.60;0.60;;;15.10;99.90;;;;;;5117247;28;20032;-69
2023/06/17 03:46:40;;;;;;;0.80;0.80;;;15.20;99.90;;;;;;5116945;28;20051;-69
2023/06/17 03:49:05;;;;;;;1.13;0.87;;;15.30;99.90;;;;;;5116949;28;20474;-69
2023/06/17 03:51:32;;;;;;;0.60;0.60;;;15.20;99.90;;;;;;5116954;28;20088;-69
2023/06/17 03:53:58;;;;;;;0.40;0.40;;;15.10;99.90;;;;;;5116894;28;20046;-69
2023/06/17 03:56:23;;;;;;;0.40;0.40;;;15.10;99.90;;;;;;5116716;28;20122;-70
2023/06/17 03:58:53;;;;;;;0.60;0.60;;;15.30;99.90;;;;;;5116834;27;20044;-69
2023/06/17 04:01:19;;;;;;;0.40;0.40;;;15.00;99.90;;;;;;5116730;28;20142;-69
2023/06/17 04:03:45;;;;;;;0.50;0.50;;;15.00;99.90;;;;;;5116636;28;20487;-70
2023/06/17 04:06:10;;;;;;;0.83;0.40;;;15.00;99.90;;;;;;5116854;28;20047;-70
2023/06/17 04:08:37;;;;;;;0.30;0.30;;;15.00;99.90;;;;;;5116766;28;20047;-70
2023/06/17 04:11:03;;;;;;;0.40;0.40;;;15.00;99.90;;;;;;5116565;28;20047;-70
2023/06/17 04:13:28;;;;;;;0.50;0.50;;;15.10;99.90;;;;;;5116453;27;20076;-69
2023/06/17 04:15:55;;;;;;;0.50;0.50;;;15.20;99.90;;;;;;5116429;28;20044;-69
2023/06/17 04:18:20;;;;;;;0.40;0.40;;;15.20;99.90;;;;;;5116393;28;20140;-69
2023/06/17 04:20:46;;;;;;;0.60;0.60;;;15.30;99.90;;;;;;5116302;28;20077;-69
2023/06/17 04:23:12;;;;;;;0.50;0.50;;;15.40;99.90;;;;;;5116655;28;20035;-69
2023/06/17 04:25:37;;;;;;;0.40;0.40;;;15.40;99.90;;;;;;5116251;28;20116;-69
2023/06/17 04:28:07;;;;;;;0.40;0.40;;;15.40;99.90;;;;;;5115013;28;20042;-69
2023/06/17 04:30:33;;;;;;;0.40;0.40;;;15.40;99.90;;;;;;5115057;28;20386;-69
2023/06/17 04:33:00;;;;;;;0.40;0.40;;;15.40;99.90;;;;;;5116085;28;20131;-70
2023/06/17 04:35:26;;;;;;;;;;;15.40;99.90;;;;;;5116417;28;20383;-70
2023/06/17 04:37:55;;;;;;;0.40;0.40;;;15.40;99.90;;;;;;5116018;28;19968;-70
2023/06/17 04:40:25;;;;;;;0.55;0.55;;;15.50;99.90;;;;;;5115871;28;20042;-70
2023/06/17 04:42:51;;;;;;;0.30;0.30;;;15.50;99.90;;;;;;5115957;28;20039;-69
2023/06/17 04:45:17;;;;;;;0.30;0.30;;;15.60;99.90;;;;;;5115885;28;20032;-69
2023/06/17 04:47:46;;;;;;;0.77;0.77;;;15.60;99.90;;;;;;5115797;28;20043;-69
2023/06/17 04:50:16;;;;;;;0.50;0.50;;;15.60;99.90;;;;;;5115896;28;20058;-70
2023/06/17 04:52:48;;;;;;;0.40;0.40;;;15.60;99.90;;;;;;5115871;27;20503;-68
2023/06/17 04:55:14;;;;;;;0.38;0.38;;;15.70;99.90;;;;;;5115852;28;20352;-69
2023/06/17 04:57:43;;;;;;;0.40;0.40;;;15.70;99.90;;;;;;5115685;28;20126;-70
2023/06/17 05:00:10;;;;;;;0.40;0.40;;;15.80;99.90;;;;;;5115437;28;20037;-70
2023/06/17 05:02:38;;;;;;;0.40;0.40;;;15.70;99.90;;;;;;5115247;28;20118;-70
2023/06/17 05:05:08;;;;;;;0.40;0.40;;;15.80;99.90;;;;;;5115265;28;20047;-70
2023/06/17 05:07:34;;;;;;;0.30;0.30;;;15.80;99.90;;;;;;5115443;28;20078;-70
2023/06/17 05:10:00;;;;;;;0.40;0.40;;;15.70;99.90;;;;;;5115341;28;20038;-71
2023/06/17 05:12:26;;;;;;;1.37;1.27;;;15.80;99.90;;;;;;5114128;28;20460;-69
2023/06/17 05:14:52;;;;;;;0.52;0.52;;;15.80;99.90;;;;;;5115276;28;20122;-70
2023/06/17 05:17:18;;;;;;;0.60;0.60;;;15.80;99.90;;;;;;5114958;28;20463;-69
2023/06/17 05:19:43;;;;;;;1.60;1.30;;;15.80;99.90;;;;;;5115490;28;20115;-70
2023/06/17 05:22:09;;;;;;;0.40;0.40;;;15.80;99.90;;;;;;5115125;28;20039;-70
2023/06/17 05:24:34;;;;;;;0.40;0.40;;;15.90;99.90;;;;;;5115059;28;20071;-69
2023/06/17 05:27:00;;;;;;;0.40;0.40;;;15.80;99.90;;;;;;5115225;28;20108;-69
2023/06/17 05:29:26;;;;;;;0.67;0.67;;;15.80;99.90;;;;;;5114928;28;20041;-70
2023/06/17 05:31:51;;;;;;;0.40;0.40;;;15.80;99.90;;;;;;5114911;28;20042;-70
2023/06/17 05:34:17;;;;;;;0.30;0.30;;;15.70;99.90;;;;;;5114896;28;20521;-69
2023/06/17 05:36:43;;;;;;;0.40;0.40;;;15.80;99.90;;;;;;5115148;28;20074;-70
2023/06/17 05:39:08;;;;;;;0.40;0.40;;;15.80;99.90;;;;;;5114784;28;20125;-70
2023/06/17 05:41:34;;;;;;;0.40;0.40;;;15.80;99.90;;;;;;5114776;28;20046;-70
2023/06/17 05:44:00;;;;;;;0.60;0.60;;;15.80;99.90;;;;;;5114431;28;20114;-70
2023/06/17 05:46:25;;;;;;;0.53;0.53;;;15.80;99.90;;;;;;5115130;28;20043;-70
2023/06/17 05:48:51;;;;;;;0.40;0.40;;;15.90;99.90;;;;;;5114737;28;20042;-70
2023/06/17 05:51:17;;;;;;;0.93;0.93;;;15.90;99.90;;;;;;5114876;28;20085;-70
2023/06/17 05:53:43;;;;;;;0.50;0.50;;;;;;;;;;5114623;28;20036;-70
2023/06/17 05:56:09;;;;;;;1.30;0.77;;;16.00;99.90;;;;;;5114559;28;20071;-68
2023/06/17 05:58:35;;;;;;;0.60;0.60;;;16.00;99.90;;;;;;5114602;28;20285;-69
2023/06/17 06:01:01;;;;;;;0.47;0.47;;;16.00;99.90;;;;;;5113654;28;20036;-69
2023/06/17 06:03:26;;;;;;;0.40;0.40;;;15.90;99.90;;;;;;5114873;28;20040;-69
2023/06/17 06:05:52;;;;;;;0.50;0.50;;;15.90;99.90;;;;;;5114976;28;20043;-70
2023/06/17 06:08:17;;;;;;;0.40;0.40;;;16.00;99.90;;;;;;5114356;28;20044;-69
2023/06/17 06:10:43;;;;;;;1.33;1.23;;;16.00;99.90;;;;;;5114331;28;20051;-69
2023/06/17 06:13:08;;;;;;;0.40;0.40;;;16.00;99.90;;;;;;5114319;28;20126;-69
2023/06/17 06:15:34;;;;;;;0.37;0.37;;;16.00;99.90;;;;;;5114309;28;20374;-70
2023/06/17 06:18:00;;;;;;;0.40;0.40;;;16.00;99.90;;;;;;5114305;28;20092;-69
2023/06/17 06:20:26;;;;;;;0.40;0.40;;;16.10;99.90;;;;;;5114148;28;20475;-69
2023/06/17 06:22:52;;;;;;;0.40;0.40;;;16.10;99.90;;;;;;5114237;28;20122;-69
2023/06/17 06:25:18;;;;;;;0.57;0.57;;;16.20;99.90;;;;;;5114410;28;20071;-69
2023/06/17 06:27:44;;;;;;;1.30;1.27;;;16.20;99.90;;;;;;5114472;28;20036;-69
2023/06/17 06:30:10;;;;;;;0.60;0.53;;;16.20;99.90;;;;;;5114061;28;20035;-69
2023/06/17 06:32:36;;;;;;;0.40;0.40;;;16.20;99.90;;;;;;5113865;28;20048;-69
2023/06/17 06:35:02;;;;;;;0.40;0.40;;;16.20;99.90;;;;;;5114470;28;20043;-70
2023/06/17 06:37:28;;;;;;;0.50;0.50;;;16.20;99.90;;;;;;5114161;28;20399;-69
2023/06/17 06:39:54;;;;;;;0.40;0.40;;;16.30;99.90;;;;;;5113977;28;20035;-69
2023/06/17 06:42:19;;;;;;;0.50;0.50;;;16.30;99.90;;;;;;5114100;28;20367;-69
2023/06/17 06:44:45;;;;;;;0.77;0.77;;;16.40;99.90;;;;;;5113132;28;20177;-70
2023/06/17 06:47:10;;;;;;;1.07;0.97;;;16.40;99.90;;;;;;5113434;28;20044;-70
2023/06/17 06:49:36;;;;;;;0.60;0.60;;;16.30;99.90;;;;;;5112758;28;20406;-70
2023/06/17 06:52:02;;;;;;;0.40;0.40;;;16.30;99.90;;;;;;5112181;28;20065;-70
2023/06/17 06:54:27;;;;;;;0.60;0.60;;;16.40;99.90;;;;;;5112013;28;20111;-71
2023/06/17 06:56:53;;;;;;;0.60;0.60;;;16.40;99.90;;;;;;5112518;28;20037;-71
2023/06/17 06:59:18;;;;;;;0.40;0.40;;;16.60;99.90;;;;;;5113763;28;20040;-68
2023/06/17 07:01:44;;;;;;;0.30;0.30;;;16.70;99.90;;;;;;5114402;28;20044;-67
2023/06/17 07:04:10;;;;;;;0.50;0.50;;;16.70;99.90;;;;;;5113382;28;20036;-70
2023/06/17 07:06:35;;;;;;;0.83;0.83;;;16.70;99.90;;;;;;5114255;28;20039;-70
2023/06/17 07:09:01;;;;;;;0.40;0.40;;;16.70;99.90;;;;;;5112864;28;20398;-70
2023/06/17 07:11:27;;;;;;;0.40;0.40;;;16.70;99.90;;;;;;5114010;28;20118;-70
2023/06/17 07:13:53;;;;;;;0.50;0.50;;;16.80;99.90;;;;;;5117757;28;20054;-70
2023/06/17 07:16:19;;;;;;;0.43;0.43;;;16.90;99.90;;;;;;5117532;28;20036;-70
2023/06/17 07:18:44;;;;;;;0.40;0.40;;;16.90;99.90;;;;;;5117590;28;20035;-71
2023/06/17 07:21:10;;;;;;;0.83;0.83;;;17.00;99.90;;;;;;5117053;28;20371;-71
2023/06/17 07:23:36;;;;;;;0.77;0.77;;;17.10;99.90;;;;;;5115295;28;20559;-70
2023/06/17 07:26:01;;;;;;;0.60;0.60;;;17.10;99.90;;;;;;5115376;28;20035;-71
2023/06/17 07:28:28;;;;;;;0.53;0.53;;;17.20;99.90;;;;;;5117372;28;20040;-70
2023/06/17 07:30:55;;;;;;;0.40;0.40;;;17.30;99.90;;;;;;5117191;28;20074;-70
2023/06/17 07:33:21;;;;;;;1.27;1.15;;;17.40;99.90;;;;;;5117304;28;20123;-71
2023/06/17 07:35:47;;;;;;;0.47;0.47;;;17.50;99.90;;;;;;5117007;28;20122;-71
2023/06/17 07:38:13;;;;;;;0.40;0.40;;;17.60;99.90;;;;;;5117114;28;20047;-71
2023/06/17 07:40:38;;;;;;;0.40;0.40;;;17.60;99.90;;;;;;5116996;28;20265;-70
2023/06/17 07:43:04;;;;;;;0.40;0.40;;;17.70;99.90;;;;;;5117140;28;20044;-70
2023/06/17 07:45:31;;;;;;;0.40;0.40;;;17.80;99.90;;;;;;5116974;28;20039;-70
2023/06/17 07:47:56;;;;;;;0.70;0.70;;;18.10;99.90;;;;;;5117415;28;20051;-70
2023/06/17 07:50:22;;;;;;;0.40;0.40;;;18.30;99.90;;;;;;5116918;28;20028;-71
2023/06/17 07:52:50;;;;;;;0.50;0.50;;;18.40;99.90;;;;;;5116993;28;20441;-70
2023/06/17 07:55:16;;;;;;;0.73;0.73;;;18.30;99.90;;;;;;5117240;28;20044;-71
2023/06/17 07:57:42;;;;;;;0.40;0.40;;;18.40;99.90;;;;;;5116849;28;20046;-70
2023/06/17 08:00:13;;;;;;;0.50;0.50;;;18.40;99.90;;;;;;5116635;28;20039;-71
2023/06/17 08:02:42;;;;;;;3.13;1.30;;;18.40;99.90;;;;;;5117263;28;20132;-70
2023/06/17 08:05:09;;;;;;;0.30;0.30;;;18.70;99.90;;;;;;5116486;28;20073;-71
2023/06/17 08:07:35;;;;;;;;;;;19.00;99.90;;;;;;5116951;28;20134;-70
2023/06/17 08:10:01;;;;;;;0.60;0.60;;;19.30;99.90;;;;;;5116646;28;19963;-71
2023/06/17 08:12:26;;;;;;;0.50;0.50;;;19.40;99.90;;;;;;5116557;28;20434;-71
2023/06/17 08:14:52;;;;;;;0.43;0.43;;;19.40;99.90;;;;;;5116830;28;20120;-71
2023/06/17 08:17:18;;;;;;;0.50;0.50;;;19.50;99.90;;;;;;5116522;28;20032;-70
2023/06/17 08:19:43;;;;;;;0.40;0.40;;;19.50;99.90;;;;;;5116410;28;20376;-70
2023/06/17 08:22:10;;;;;;;0.67;0.67;;;19.70;99.90;;;;;;5116381;28;20043;-71
2023/06/17 08:24:36;;;;;;;;;;;19.90;99.90;;;;;;5116096;28;20086;-71
2023/06/17 08:27:02;;;;;;;0.43;0.43;;;20.20;99.90;;;;;;5116257;28;19915;-71
2023/06/17 08:29:28;;;;;;;0.70;0.70;;;20.40;99.90;;;;;;5116276;28;20039;-70
2023/06/17 08:31:54;;;;;;;0.40;0.40;;;20.50;99.90;;;;;;5116664;28;20081;-70
2023/06/17 08:34:21;;;;;;;0.63;0.60;;;20.50;99.90;;;;;;5116147;28;20036;-71
2023/06/17 08:36:52;;;;;;;0.47;0.47;;;20.40;99.90;;;;;;5116115;28;20441;-71
2023/06/17 08:39:19;;;;;;;1.35;1.27;;;20.50;99.90;;;;;;5115948;28;20494;-71
2023/06/17 08:41:45;;;;;;;0.57;0.57;;;20.40;99.90;;;;;;5114783;28;20488;-71
2023/06/17 08:44:12;;;;;;;0.40;0.40;;;20.50;99.90;;;;;;5116431;27;20047;-71
2023/06/17 08:46:39;;;;;;;0.50;0.50;;;20.80;99.90;;;;;;5115839;28;20051;-71
2023/06/17 08:49:07;;;;;;;1.30;0.93;;;21.00;99.90;;;;;;5115812;28;20122;-71
2023/06/17 08:51:34;;;;;;;0.50;0.50;;;21.20;99.90;;;;;;5115817;28;20047;-71
2023/06/17 08:54:01;;;;;;;0.47;0.47;;;20.90;99.90;;;;;;5115644;28;20079;-71
2023/06/17 08:56:27;;;;;;;1.33;1.27;;;21.00;99.90;;;;;;5115613;28;20035;-70
2023/06/17 08:58:55;;;;;;;0.30;0.30;;;21.20;99.90;;;;;;5115662;28;20368;-71
2023/06/17 09:01:25;;;;;;;0.30;0.30;;;21.30;99.90;;;;;;5115820;28;20044;-71
2023/06/17 09:03:52;;;;;;;0.40;0.40;;;21.50;99.90;;;;;;5115503;28;20038;-71
2023/06/17 09:06:27;;;;;;;0.85;0.57;;;21.60;99.90;;;;;;5115880;28;20053;-71
2023/06/17 09:08:57;;;;;;;0.77;0.68;;;21.70;99.90;;;;;;5115318;28;20040;-71
2023/06/17 09:11:22;;;;;;;0.50;0.50;;;21.90;99.90;;;;;;5115375;28;20035;-71
2023/06/17 09:13:56;;;;;;;0.57;0.57;;;21.70;99.90;;;;;;5115642;28;20089;-71
2023/06/17 09:16:35;;;;;;;0.73;0.73;;;21.70;99.90;;;;;;5115186;28;20122;-71
2023/06/17 09:19:08;;;;;;;0.40;0.40;;;21.90;99.90;;;;;;5115324;28;20130;-71
2023/06/17 09:21:35;;;;;;;2.08;0.50;;;22.10;99.90;;;;;;5114948;28;20514;-71
2023/06/17 09:24:03;;;;;;;0.50;0.50;;;22.10;99.90;;;;;;5115104;28;20086;-71
2023/06/17 09:26:34;;;;;;;0.52;0.52;;;22.30;99.90;;;;;;5114730;28;20376;-70
2023/06/17 09:29:10;;;;;;;0.40;0.40;;;22.20;99.90;;;;;;5115087;28;20058;-71
2023/06/17 09:31:49;;;;;;;1.05;0.73;;;22.20;99.90;;;;;;5115135;28;20044;-71
2023/06/17 09:34:15;;;;;;;0.68;0.68;;;22.30;99.90;;;;;;5114794;28;20463;-71
2023/06/17 09:36:42;;;;;;;0.45;0.45;;;22.30;99.90;;;;;;5113961;28;20652;-71
2023/06/17 09:39:12;;;;;;;0.30;0.30;;;22.60;99.90;;;;;;5115189;28;20356;-68
2023/06/17 09:41:42;;;;;;;0.40;0.40;;;22.80;99.90;;;;;;5113856;28;20036;-68
2023/06/17 09:44:08;;;;;;;0.30;0.30;;;23.00;99.90;;;;;;5114903;28;20149;-69
2023/06/17 09:46:40;;;;;;;0.30;0.30;;;23.10;99.90;;;;;;5114723;28;20522;-69
2023/06/17 09:49:09;;;;;;;0.38;0.38;;;23.10;99.90;;;;;;5115191;28;20032;-68
2023/06/17 09:51:38;;;;;;;0.40;0.40;;;23.10;99.90;;;;;;5114695;28;20065;-69
2023/06/17 09:54:08;;;;;;;0.50;0.50;;;23.20;99.90;;;;;;5114614;28;20463;-68
2023/06/17 09:56:35;;;;;;;0.60;0.60;;;23.30;99.90;;;;;;5114580;28;20479;-68
2023/06/17 09:59:07;;;;;;;0.57;0.57;;;23.50;99.90;;;;;;5114512;28;20039;-68
2023/06/17 10:01:32;;;;;;;0.40;0.40;;;23.30;99.90;;;;;;5114457;28;20040;-68
2023/06/17 10:04:01;;;;;;;0.60;0.60;;;23.40;99.90;;;;;;5114753;28;20479;-69
2023/06/17 10:06:30;;;;;;;0.45;0.45;;;23.50;99.90;;;;;;5114024;28;20387;-68
2023/06/17 10:08:57;;;;;;;0.50;0.50;;;23.50;99.90;;;;;;5114430;28;20035;-69
2023/06/17 10:11:25;;;;;;;0.30;0.30;;;23.40;99.90;;;;;;5114348;28;20043;-69
2023/06/17 10:14:04;;;;;;;0.30;0.30;;;23.50;99.90;;;;;;5112802;28;20475;-68
2023/06/17 10:16:34;;;;;;;0.30;0.30;;;23.70;99.90;;;;;;5114105;28;20547;-69
2023/06/17 10:19:03;;;;;;;0.30;0.30;;;23.80;99.90;;;;;;5114047;28;20490;-68
2023/06/17 10:21:30;;;;;;;0.30;0.30;;;23.90;99.90;;;;;;5114193;28;20046;-69
2023/06/17 10:23:58;;;;;;;0.30;0.30;;;24.30;99.90;;;;;;5114362;28;20081;-69
2023/06/17 10:26:23;;;;;;;0.30;0.30;;;24.50;99.90;;;;;;5114102;28;20048;-68
2023/06/17 10:29:05;;;;;;;1.23;1.17;;;24.60;99.90;;;;;;5114232;28;20486;-69
2023/06/17 10:31:37;;;;;;;0.40;0.40;;;24.70;99.90;;;;;;5114497;28;20266;-69
2023/06/17 10:34:03;;;;;;;0.40;0.40;;;24.80;99.90;;;;;;5114234;28;20118;-69
2023/06/17 10:36:31;;;;;;;0.40;0.40;;;25.00;99.90;;;;;;5114128;28;20394;-69
2023/06/17 10:39:03;;;;;;;0.30;0.30;;;25.00;99.90;;;;;;5113994;28;20047;-69
2023/06/17 10:41:37;;;;;;;0.30;0.30;;;25.30;99.90;;;;;;5113992;28;20044;-68
2023/06/17 10:44:42;;;;;;;0.30;0.30;;;25.40;99.90;;;;;;5113143;28;20035;-68
2023/06/17 10:47:21;;;;;;;0.40;0.40;;;25.40;99.90;;;;;;5083878;28;20195;-68
2023/06/17 10:49:49;;;;;;;0.40;0.40;;;25.50;99.90;;;;;;5118114;28;20371;-69
2023/06/17 10:52:15;;;;;;;0.32;0.32;;;25.60;99.90;;;;;;5118053;28;20066;-69
2023/06/17 10:54:45;;;;;;;;;;;25.70;99.90;;;;;;5118325;28;20498;-69
2023/06/17 10:57:11;;;;;;;0.32;0.32;;;25.90;99.90;;;;;;5117981;28;19916;-69
2023/06/17 10:59:36;;;;;;;0.70;0.70;;;26.00;99.90;;;;;;5117864;28;20042;-69
2023/06/17 11:02:07;;;;;;;0.30;0.30;;;26.10;99.60;;;;;;5117521;28;20036;-70
2023/06/17 11:04:40;;;;;;;1.55;1.00;;;26.30;99.90;;;;;;5117744;28;20063;-70
2023/06/17 11:07:07;;;;;;;1.00;0.60;;;26.10;98.80;;;;;;5117782;28;20048;-70
2023/06/17 11:09:33;;;;;;;0.50;0.50;;;26.20;99.70;;;;;;5117443;28;20497;-70
2023/06/17 11:12:02;;;;;;;0.57;0.52;;;26.40;99.70;;;;;;5117613;28;20046;-70
2023/06/17 11:14:29;;;;;;;0.68;0.68;;;26.50;99.10;;;;;;5117557;28;20436;-70
2023/06/17 11:16:55;;;;;;;2.30;1.52;;;26.60;98.20;;;;;;5117542;28;20374;-69
2023/06/17 11:19:22;;;;;;;0.40;0.40;;;26.50;97.30;;;;;;5117492;27;20036;-69
2023/06/17 11:21:57;;;;;;;0.30;0.30;;;26.60;98.10;;;;;;5117421;28;20047;-70
2023/06/17 11:24:23;;;;;;;0.55;0.55;;;26.60;98.30;;;;;;5117514;27;20093;-70
2023/06/17 11:26:48;;;;;;;0.40;0.40;;;26.70;97.50;;;;;;5117261;28;20207;-70
2023/06/17 11:29:14;;;;;;;0.50;0.50;;;26.70;97.70;;;;;;5117019;28;20126;-70
2023/06/17 11:31:40;;;;;;;0.20;0.20;;;26.90;96.80;;;;;;5117340;28;20099;-70
2023/06/17 11:34:06;;;;;;;0.53;0.53;;;27.00;97.00;;;;;;5117604;28;20051;-70
2023/06/17 11:36:34;;;;;;;0.73;0.68;;;27.10;95.90;;;;;;5117400;28;20383;-71
2023/06/17 11:38:59;;;;;;;0.63;0.45;;;27.00;96.40;;;;;;5117149;28;20035;-71
2023/06/17 11:41:25;;;;;;;0.30;0.30;;;26.80;95.90;;;;;;5116945;28;20038;-70
2023/06/17 11:43:51;;;;;;;0.20;0.20;;;26.70;95.60;;;;;;5117022;28;20063;-70
2023/06/17 11:46:21;;;;;;;0.50;0.50;;;26.60;95.20;;;;;;5117333;28;20040;-70
2023/06/17 11:48:48;;;;;;;0.50;0.50;;;26.80;95.20;;;;;;5116967;28;20040;-70
2023/06/17 11:51:20;;;;;;;0.40;0.40;;;27.10;95.60;;;;;;5117443;28;20090;-70
2023/06/17 11:53:48;;;;;;;0.50;0.50;;;27.30;95.90;;;;;;5116864;28;20042;-70
2023/06/17 11:56:16;;;;;;;0.63;0.40;;;27.40;95.40;;;;;;5116483;28;20530;-70
2023/06/17 11:58:45;;;;;;;1.05;1.00;;;27.50;95.60;;;;;;5115618;28;20093;-70
2023/06/17 12:01:12;;;;;;;2.47;0.70;;;27.60;95.50;;;;;;5116582;28;20082;-70
2023/06/17 12:03:43;;;;;;;0.77;0.70;;;27.70;96.10;;;;;;5116682;28;20045;-70
2023/06/17 12:06:15;;;;;;;1.73;0.85;;;27.80;95.60;;;;;;5116744;28;20086;-71
2023/06/17 12:08:42;;;;;;;0.30;0.30;;;27.80;95.20;;;;;;5115430;28;20043;-70
2023/06/17 12:11:30;;;;;;;0.30;0.30;;;27.80;95.00;;;;;;5116556;28;20084;-71
2023/06/17 12:13:57;;;;;;;0.30;0.30;;;27.90;95.70;;;;;;5115740;28;20410;-70
2023/06/17 12:16:23;;;;;;;6.15;0.98;;;28.10;95.00;;;;;;5116449;28;20046;-71
2023/06/17 12:18:50;;;;;;;0.22;0.22;;;28.20;94.10;;;;;;5116118;28;20047;-70
2023/06/17 12:21:19;;;;;;;0.60;0.60;;;28.10;94.60;;;;;;5116278;28;20067;-70
2023/06/17 12:23:45;;;;;;;0.40;0.40;;;28.30;94.50;;;;;;5116358;28;20355;-70
2023/06/17 12:26:11;;;;;;;0.20;0.20;;;28.30;93.40;;;;;;5116215;28;20075;-69
2023/06/17 12:28:37;;;;;;;0.93;0.67;;;28.30;94.20;;;;;;5116225;28;20074;-71
2023/06/17 12:31:02;;;;;;;2.55;1.15;;;28.10;92.60;;;;;;5116170;28;20371;-70
2023/06/17 12:33:28;;;;;;;0.40;0.40;;;28.20;93.90;;;;;;5116189;28;20544;-70
2023/06/17 12:35:54;;;;;;;0.43;0.43;;;28.20;92.60;;;;;;5116087;28;20043;-71
2023/06/17 12:38:23;;;;;;;0.53;0.53;;;28.30;93.60;;;;;;5116264;28;20486;-70
2023/06/17 12:40:50;;;;;;;0.80;0.75;;;28.30;93.50;;;;;;5115785;28;20070;-70
2023/06/17 12:43:15;;;;;;;0.40;0.40;;;28.30;93.50;;;;;;5116153;28;20436;-70
2023/06/17 12:45:42;;;;;;;0.30;0.30;;;28.40;93.10;;;;;;5115651;28;20150;-71
2023/06/17 12:48:07;;;;;;;;;;;28.30;92.50;;;;;;5116219;28;20281;-70